createdAt,value
2023-05-14T00:00:27.075Z,7.89
2023-05-14T00:03:14.458Z,7.84
2023-05-14T00:05:41.756Z,7.80
2023-05-14T00:08:09.040Z,7.76
2023-05-14T00:10:36.270Z,7.73
2023-05-14T00:13:03.223Z,7.69
2023-05-14T00:15:31.302Z,7.65
2023-05-14T00:18:00.152Z,7.60
2023-05-14T00:20:27.411Z,7.56
2023-05-14T00:22:54.514Z,7.53
2023-05-14T00:25:21.612Z,7.50
2023-05-14T00:27:48.716Z,7.48
2023-05-14T00:30:15.838Z,7.46
2023-05-14T00:32:43.046Z,7.44
2023-05-14T00:35:10.071Z,7.39
2023-05-14T00:37:37.131Z,7.31
2023-05-14T00:40:06.599Z,7.21
2023-05-14T00:42:34.466Z,7.16
2023-05-14T00:45:01.616Z,7.12
2023-05-14T00:47:28.664Z,7.08
2023-05-14T00:49:55.809Z,7.03
2023-05-14T00:52:22.840Z,7.01
2023-05-14T00:54:50.395Z,6.99
2023-05-14T00:57:18.273Z,6.99
2023-05-14T00:59:45.357Z,6.97
2023-05-14T01:02:12.396Z,6.96
2023-05-14T01:04:40.041Z,6.96
2023-05-14T01:07:25.923Z,6.97
2023-05-14T01:10:09.235Z,6.96
2023-05-14T01:12:50.727Z,6.96
2023-05-14T01:15:31.182Z,6.96
2023-05-14T01:18:08.236Z,6.98
2023-05-14T01:20:36.244Z,6.99
2023-05-14T01:23:03.236Z,7.00
2023-05-14T01:25:31.268Z,7.00
2023-05-14T01:28:04.258Z,7.00
2023-05-14T01:30:37.144Z,7.01
2023-05-14T01:33:12.175Z,7.03
2023-05-14T01:35:40.452Z,7.06
2023-05-14T01:38:11.111Z,7.09
2023-05-14T01:40:39.013Z,7.13
2023-05-14T01:43:06.657Z,7.17
2023-05-14T01:45:36.835Z,7.21
2023-05-14T01:48:05.537Z,7.25
2023-05-14T01:50:32.901Z,7.28
2023-05-14T01:53:00.161Z,7.31
2023-05-14T01:55:27.632Z,7.33
2023-05-14T01:57:54.852Z,7.35
2023-05-14T02:00:23.804Z,7.39
2023-05-14T02:02:51.268Z,7.43
2023-05-14T02:05:18.920Z,7.47
2023-05-14T02:07:46.781Z,7.49
2023-05-14T02:10:14.041Z,7.48
2023-05-14T02:12:41.195Z,7.43
2023-05-14T02:15:10.511Z,7.35
2023-05-14T02:17:38.311Z,7.29
2023-05-14T02:20:06.587Z,7.23
2023-05-14T02:22:33.600Z,7.17
2023-05-14T02:25:00.862Z,7.13
2023-05-14T02:27:28.369Z,7.09
2023-05-14T02:30:00.179Z,7.08
2023-05-14T02:32:27.963Z,7.08
2023-05-14T02:34:55.216Z,7.09
2023-05-14T02:37:22.386Z,7.10
2023-05-14T02:39:49.523Z,7.10
2023-05-14T02:42:16.673Z,7.03
2023-05-14T02:44:43.726Z,6.97
2023-05-14T02:47:11.404Z,6.89
2023-05-14T02:49:38.354Z,6.84
2023-05-14T02:52:05.920Z,6.81
2023-05-14T02:54:33.169Z,6.80
2023-05-14T02:57:00.332Z,6.80
2023-05-14T02:59:27.699Z,6.80
2023-05-14T03:01:55.400Z,6.81
2023-05-14T03:04:23.335Z,6.84
2023-05-14T03:06:50.795Z,6.88
2023-05-14T03:09:17.852Z,6.93
2023-05-14T03:11:44.895Z,6.97
2023-05-14T03:14:12.060Z,6.99
2023-05-14T03:16:41.750Z,7.02
2023-05-14T03:19:09.448Z,7.07
2023-05-14T03:21:36.588Z,7.11
2023-05-14T03:24:03.955Z,7.15
2023-05-14T03:26:31.006Z,7.18
2023-05-14T03:28:58.052Z,7.22
2023-05-14T03:31:25.856Z,7.27
2023-05-14T03:33:52.980Z,7.33
2023-05-14T03:36:20.342Z,7.38
2023-05-14T03:38:48.021Z,7.44
2023-05-14T03:41:17.410Z,7.49
2023-05-14T03:43:44.468Z,7.55
2023-05-14T03:46:11.724Z,7.62
2023-05-14T03:48:39.033Z,7.68
2023-05-14T03:51:06.238Z,7.76
2023-05-14T03:53:34.828Z,7.83
2023-05-14T03:56:02.009Z,7.91
2023-05-14T03:58:29.051Z,8.00
2023-05-14T04:00:56.231Z,8.06
2023-05-14T04:03:23.335Z,8.13
2023-05-14T04:05:51.116Z,8.19
2023-05-14T04:08:18.170Z,8.25
2023-05-14T04:10:45.219Z,8.31
2023-05-14T04:13:12.400Z,8.39
2023-05-14T04:15:40.373Z,8.47
2023-05-14T04:18:07.929Z,8.54
2023-05-14T04:20:35.279Z,8.62
2023-05-14T04:23:02.415Z,8.70
2023-05-14T04:25:30.096Z,8.78
2023-05-14T04:27:58.273Z,8.88
2023-05-14T04:30:26.048Z,8.97
2023-05-14T04:32:53.232Z,9.08
2023-05-14T04:35:23.287Z,9.19
2023-05-14T04:37:51.807Z,9.30
2023-05-14T04:40:19.065Z,9.44
2023-05-14T04:42:46.049Z,9.57
2023-05-14T04:45:14.132Z,9.70
2023-05-14T04:47:41.252Z,9.84
2023-05-14T04:50:09.362Z,9.99
2023-05-14T04:52:36.542Z,10.13
2023-05-14T04:55:04.147Z,10.27
2023-05-14T04:57:31.094Z,10.40
2023-05-14T04:59:58.044Z,10.53
2023-05-14T05:02:25.540Z,10.66
2023-05-14T05:04:52.770Z,10.79
2023-05-14T05:07:19.937Z,10.93
2023-05-14T05:09:47.084Z,11.07
2023-05-14T05:12:14.131Z,11.20
2023-05-14T05:14:41.309Z,11.31
2023-05-14T05:17:08.443Z,11.43
2023-05-14T05:19:43.289Z,11.53
2023-05-14T05:22:11.759Z,11.67
2023-05-14T05:24:39.125Z,11.78
2023-05-14T05:27:06.298Z,11.91
2023-05-14T05:29:34.771Z,12.03
2023-05-14T05:32:02.229Z,12.15
2023-05-14T05:34:29.502Z,12.25
2023-05-14T05:36:56.735Z,12.36
2023-05-14T05:39:24.003Z,12.44
2023-05-14T05:41:51.180Z,12.53
2023-05-14T05:44:18.245Z,12.62
2023-05-14T05:46:45.531Z,12.72
2023-05-14T05:49:12.622Z,12.79
2023-05-14T05:51:39.789Z,12.88
2023-05-14T05:54:07.036Z,12.97
2023-05-14T05:56:34.188Z,13.07
2023-05-14T05:59:01.646Z,13.17
2023-05-14T06:01:28.908Z,13.26
2023-05-14T06:03:56.684Z,13.37
2023-05-14T06:06:23.738Z,13.47
2023-05-14T06:08:50.990Z,13.59
2023-05-14T06:11:18.153Z,13.71
2023-05-14T06:13:45.192Z,13.85
2023-05-14T06:16:12.213Z,13.98
2023-05-14T06:18:39.324Z,14.10
2023-05-14T06:21:06.360Z,14.24
2023-05-14T06:23:33.326Z,14.40
2023-05-14T06:26:00.689Z,14.55
2023-05-14T06:28:28.024Z,14.70
2023-05-14T06:30:55.393Z,14.84
2023-05-14T06:33:30.220Z,14.96
2023-05-14T06:36:03.045Z,15.11
2023-05-14T06:38:30.362Z,15.24
2023-05-14T06:40:57.528Z,15.35
2023-05-14T06:43:24.782Z,15.43
2023-05-14T06:45:52.445Z,15.52
2023-05-14T06:48:20.218Z,15.61
2023-05-14T06:50:48.705Z,15.72
2023-05-14T06:53:16.191Z,15.83
2023-05-14T06:55:43.544Z,15.94
2023-05-14T06:58:10.590Z,16.05
2023-05-14T07:00:37.733Z,16.16
2023-05-14T07:03:05.066Z,16.29
2023-05-14T07:05:32.037Z,16.39
2023-05-14T07:07:59.298Z,16.44
2023-05-14T07:10:26.573Z,16.40
2023-05-14T07:12:53.907Z,16.40
2023-05-14T07:15:21.071Z,16.44
2023-05-14T07:17:48.651Z,16.52
2023-05-14T07:20:15.692Z,16.62
2023-05-14T07:22:42.951Z,16.73
2023-05-14T07:25:10.202Z,16.82
2023-05-14T07:27:37.151Z,16.89
2023-05-14T07:30:04.926Z,16.98
2023-05-14T07:32:32.201Z,17.09
2023-05-14T07:34:59.646Z,17.19
2023-05-14T07:37:26.900Z,17.30
2023-05-14T07:39:54.159Z,17.43
2023-05-14T07:42:34.472Z,17.51
2023-05-14T07:45:03.719Z,17.62
2023-05-14T07:47:31.250Z,17.75
2023-05-14T07:49:58.846Z,17.86
2023-05-14T07:52:26.107Z,18.00
2023-05-14T07:54:53.469Z,18.13
2023-05-14T07:57:21.650Z,18.33
2023-05-14T07:59:49.217Z,18.52
2023-05-14T08:02:17.278Z,18.68
2023-05-14T08:04:45.154Z,18.83
2023-05-14T08:07:12.413Z,18.94
2023-05-14T08:09:39.672Z,18.90
2023-05-14T08:12:07.835Z,18.95
2023-05-14T08:14:35.109Z,19.04
2023-05-14T08:17:02.987Z,19.22
2023-05-14T08:19:30.246Z,19.45
2023-05-14T08:21:57.312Z,19.66
2023-05-14T08:24:24.559Z,19.73
2023-05-14T08:26:52.023Z,19.78
2023-05-14T08:29:19.275Z,19.92
2023-05-14T08:31:46.940Z,19.95
2023-05-14T08:34:14.102Z,20.15
2023-05-14T08:36:41.258Z,20.43
2023-05-14T08:39:08.725Z,20.69
2023-05-14T08:41:37.195Z,21.01
2023-05-14T08:44:14.097Z,21.19
2023-05-14T08:46:41.752Z,21.43
2023-05-14T08:49:33.166Z,21.55
2023-05-14T08:52:00.207Z,21.58
2023-05-14T08:54:28.486Z,21.69
2023-05-14T08:56:55.735Z,21.99
2023-05-14T08:59:22.998Z,22.20
2023-05-14T09:01:53.668Z,22.41
2023-05-14T09:04:23.775Z,22.34
2023-05-14T09:06:55.815Z,22.27
2023-05-14T09:09:23.609Z,22.27
2023-05-14T09:11:52.707Z,22.37
2023-05-14T09:14:20.678Z,22.43
2023-05-14T09:16:49.452Z,22.55
2023-05-14T09:19:20.592Z,22.71
2023-05-14T09:21:49.560Z,22.77
2023-05-14T09:24:24.553Z,22.72
2023-05-14T09:26:56.913Z,22.57
2023-05-14T09:29:28.369Z,22.43
2023-05-14T09:31:57.403Z,22.43
2023-05-14T09:34:25.690Z,22.47
2023-05-14T09:36:59.562Z,22.59
2023-05-14T09:39:27.448Z,22.79
2023-05-14T09:41:55.811Z,23.12
2023-05-14T09:44:23.703Z,23.55
2023-05-14T09:46:51.799Z,24.03
2023-05-14T09:49:19.829Z,24.41
2023-05-14T09:51:48.728Z,24.67
2023-05-14T09:54:15.782Z,24.79
2023-05-14T09:56:44.066Z,24.80
2023-05-14T09:59:11.152Z,24.88
2023-05-14T10:01:39.088Z,25.10
2023-05-14T10:04:07.862Z,25.43
2023-05-14T10:06:39.761Z,25.68
2023-05-14T10:09:16.311Z,25.71
2023-05-14T10:11:49.196Z,25.58
2023-05-14T10:14:52.691Z,25.47
2023-05-14T10:17:21.827Z,25.65
2023-05-14T10:19:58.249Z,25.82
2023-05-14T10:22:31.448Z,25.84
2023-05-14T10:24:59.936Z,25.60
2023-05-14T10:27:27.106Z,25.40
2023-05-14T10:29:55.671Z,25.20
2023-05-14T10:32:25.417Z,25.01
2023-05-14T10:34:53.471Z,25.06
2023-05-14T10:37:25.556Z,25.30
2023-05-14T10:40:01.506Z,25.63
2023-05-14T10:42:40.108Z,26.04
2023-05-14T10:45:08.871Z,26.25
2023-05-14T10:47:42.034Z,26.11
2023-05-14T10:50:12.161Z,25.86
2023-05-14T10:52:43.062Z,25.65
2023-05-14T10:55:14.917Z,25.53
2023-05-14T10:57:44.636Z,25.71
2023-05-14T11:00:13.628Z,25.87
2023-05-14T11:02:42.765Z,25.81
2023-05-14T11:05:13.577Z,25.91
2023-05-14T11:07:46.330Z,25.92
2023-05-14T11:10:18.850Z,25.92
2023-05-14T11:12:48.659Z,26.04
2023-05-14T11:15:21.441Z,26.22
2023-05-14T11:17:49.938Z,26.49
2023-05-14T11:20:18.263Z,26.72
2023-05-14T11:22:47.624Z,26.75
2023-05-14T11:25:15.202Z,26.87
2023-05-14T11:27:43.866Z,27.03
2023-05-14T11:30:18.446Z,27.29
2023-05-14T11:32:47.593Z,27.56
2023-05-14T11:35:15.970Z,27.82
2023-05-14T11:37:43.738Z,27.82
2023-05-14T11:40:16.289Z,27.84
2023-05-14T11:42:43.384Z,28.00
2023-05-14T11:45:12.163Z,27.99
2023-05-14T11:47:41.614Z,27.79
2023-05-14T11:50:21.587Z,27.53
2023-05-14T11:52:50.314Z,27.37
2023-05-14T11:55:17.924Z,27.18
2023-05-14T11:57:45.353Z,26.94
2023-05-14T12:00:16.377Z,26.69
2023-05-14T12:02:43.857Z,26.38
2023-05-14T12:05:12.839Z,26.10
2023-05-14T12:07:41.337Z,25.79
2023-05-14T12:10:08.794Z,25.69
2023-05-14T12:12:39.425Z,25.72
2023-05-14T12:15:13.609Z,25.71
2023-05-14T12:17:40.717Z,25.70
2023-05-14T12:20:13.189Z,25.73
2023-05-14T12:22:42.181Z,25.65
2023-05-14T12:25:13.526Z,25.62
2023-05-14T12:27:44.267Z,25.62
2023-05-14T12:30:21.172Z,25.66
2023-05-14T12:32:52.200Z,25.65
2023-05-14T12:35:21.760Z,25.66
2023-05-14T12:37:48.743Z,25.74
2023-05-14T12:40:15.925Z,25.74
2023-05-14T12:42:43.169Z,25.82
2023-05-14T12:45:11.258Z,25.87
2023-05-14T12:47:38.522Z,25.83
2023-05-14T12:50:06.675Z,25.82
2023-05-14T12:52:38.631Z,25.78
2023-05-14T12:55:08.553Z,25.82
2023-05-14T12:57:36.131Z,25.82
2023-05-14T13:00:07.494Z,25.82
2023-05-14T13:02:43.054Z,25.77
2023-05-14T13:05:12.305Z,25.56
2023-05-14T13:07:39.890Z,25.36
2023-05-14T13:10:07.654Z,25.07
2023-05-14T13:12:34.716Z,24.87
2023-05-14T13:15:01.865Z,24.76
2023-05-14T13:17:29.151Z,24.76
2023-05-14T13:19:56.272Z,24.76
2023-05-14T13:22:23.220Z,24.69
2023-05-14T13:24:50.488Z,24.48
2023-05-14T13:27:17.450Z,24.32
2023-05-14T13:29:44.729Z,24.17
2023-05-14T13:32:11.847Z,24.00
2023-05-14T13:34:39.002Z,23.97
2023-05-14T13:37:06.878Z,23.93
2023-05-14T13:39:33.933Z,23.83
2023-05-14T13:42:01.194Z,23.67
2023-05-14T13:44:28.959Z,23.50
2023-05-14T13:46:56.318Z,23.26
2023-05-14T13:49:23.477Z,22.95
2023-05-14T13:51:50.738Z,22.80
2023-05-14T13:54:17.885Z,22.64
2023-05-14T13:56:45.059Z,22.48
2023-05-14T13:59:12.209Z,22.35
2023-05-14T14:01:39.492Z,22.24
2023-05-14T14:04:06.516Z,22.17
2023-05-14T14:06:33.665Z,22.09
2023-05-14T14:09:00.927Z,21.97
2023-05-14T14:11:28.248Z,21.82
2023-05-14T14:13:55.349Z,21.74
2023-05-14T14:16:22.543Z,21.70
2023-05-14T14:18:49.898Z,21.68
2023-05-14T14:21:17.620Z,21.64
2023-05-14T14:23:48.079Z,21.58
2023-05-14T14:26:15.308Z,21.54
2023-05-14T14:28:42.568Z,21.52
2023-05-14T14:31:10.455Z,21.49
2023-05-14T14:33:37.708Z,21.41
2023-05-14T14:36:05.575Z,21.34
2023-05-14T14:38:32.646Z,21.21
2023-05-14T14:41:02.564Z,21.10
2023-05-14T14:43:29.603Z,20.97
2023-05-14T14:45:57.325Z,20.92
2023-05-14T14:48:27.429Z,20.91
2023-05-14T14:50:55.151Z,20.93
2023-05-14T14:53:23.556Z,21.00
2023-05-14T14:55:51.038Z,21.01
2023-05-14T14:58:19.898Z,21.08
2023-05-14T15:00:47.905Z,21.14
2023-05-14T15:03:15.392Z,21.17
2023-05-14T15:05:42.713Z,21.18
2023-05-14T15:08:10.164Z,21.21
2023-05-14T15:10:37.924Z,21.24
2023-05-14T15:13:06.417Z,21.28
2023-05-14T15:15:34.816Z,21.33
2023-05-14T15:18:03.348Z,21.36
2023-05-14T15:20:30.759Z,21.35
2023-05-14T15:22:57.805Z,21.38
2023-05-14T15:25:26.971Z,21.42
2023-05-14T15:27:54.576Z,21.43
2023-05-14T15:30:21.725Z,21.40
2023-05-14T15:32:49.352Z,21.38
2023-05-14T15:35:16.663Z,21.38
2023-05-14T15:37:44.829Z,21.36
2023-05-14T15:40:12.705Z,21.29
2023-05-14T15:42:41.697Z,21.15
2023-05-14T15:45:11.782Z,21.08
2023-05-14T15:47:40.115Z,21.00
2023-05-14T15:50:08.077Z,20.91
2023-05-14T15:52:38.921Z,20.77
2023-05-14T15:55:06.544Z,20.63
2023-05-14T15:57:34.425Z,20.49
2023-05-14T16:00:09.431Z,20.36
2023-05-14T16:02:39.811Z,20.24
2023-05-14T16:05:08.068Z,20.14
2023-05-14T16:07:35.872Z,20.10
2023-05-14T16:10:03.247Z,20.10
2023-05-14T16:12:30.412Z,20.17
2023-05-14T16:14:57.619Z,20.22
2023-05-14T16:17:26.953Z,20.24
2023-05-14T16:19:56.056Z,20.25
2023-05-14T16:22:23.610Z,20.20
2023-05-14T16:24:50.869Z,20.12
2023-05-14T16:27:20.899Z,20.08
2023-05-14T16:29:48.143Z,20.04
2023-05-14T16:32:15.556Z,20.00
2023-05-14T16:34:49.112Z,19.95
2023-05-14T16:37:20.061Z,19.88
2023-05-14T16:39:48.224Z,19.82
2023-05-14T16:42:15.182Z,19.75
2023-05-14T16:44:42.329Z,19.68
2023-05-14T16:47:10.010Z,19.60
2023-05-14T16:49:37.289Z,19.52
2023-05-14T16:52:05.028Z,19.41
2023-05-14T16:54:32.078Z,19.28
2023-05-14T16:56:59.225Z,19.16
2023-05-14T16:59:26.384Z,19.07
2023-05-14T17:01:53.642Z,18.96
2023-05-14T17:04:20.947Z,18.84
2023-05-14T17:06:48.159Z,18.69
2023-05-14T17:09:16.136Z,18.52
2023-05-14T17:11:44.118Z,18.36
2023-05-14T17:14:10.543Z,18.16
2023-05-14T17:16:40.058Z,17.98
2023-05-14T17:19:06.528Z,17.77
2023-05-14T17:21:33.739Z,17.60
2023-05-14T17:24:00.887Z,17.45
2023-05-14T17:26:27.856Z,17.29
2023-05-14T17:28:55.221Z,17.17
2023-05-14T17:31:22.722Z,17.05
2023-05-14T17:33:50.244Z,16.97
2023-05-14T17:36:17.296Z,16.87
2023-05-14T17:38:44.469Z,16.80
2023-05-14T17:41:11.915Z,16.72
2023-05-14T17:43:38.969Z,16.63
2023-05-14T17:46:06.758Z,16.52
2023-05-14T17:48:33.860Z,16.44
2023-05-14T17:51:00.962Z,16.34
2023-05-14T17:53:28.106Z,16.25
2023-05-14T17:55:55.219Z,16.16
2023-05-14T17:58:22.429Z,16.08
2023-05-14T18:00:49.426Z,16.01
2023-05-14T18:03:17.144Z,15.93
2023-05-14T18:05:44.312Z,15.87
2023-05-14T18:08:11.778Z,15.82
2023-05-14T18:10:40.253Z,15.78
2023-05-14T18:13:07.522Z,15.74
2023-05-14T18:15:36.271Z,15.71
2023-05-14T18:18:03.572Z,15.68
2023-05-14T18:20:31.173Z,15.65
2023-05-14T18:22:59.372Z,15.65
2023-05-14T18:25:26.782Z,15.66
2023-05-14T18:27:54.010Z,15.66
2023-05-14T18:30:21.187Z,15.67
2023-05-14T18:32:48.288Z,15.67
2023-05-14T18:35:15.310Z,15.70
2023-05-14T18:37:42.347Z,15.71
2023-05-14T18:40:10.666Z,15.72
2023-05-14T18:42:37.784Z,15.74
2023-05-14T18:45:05.352Z,15.74
2023-05-14T18:47:33.132Z,15.76
2023-05-14T18:50:01.546Z,15.76
2023-05-14T18:52:28.968Z,15.76
2023-05-14T18:54:56.121Z,15.76
2023-05-14T18:57:23.702Z,15.75
2023-05-14T18:59:50.967Z,15.75
2023-05-14T19:02:18.172Z,15.76
2023-05-14T19:04:52.427Z,15.77
2023-05-14T19:07:20.942Z,15.80
2023-05-14T19:09:48.475Z,15.83
2023-05-14T19:12:15.936Z,15.85
2023-05-14T19:14:43.213Z,15.88
2023-05-14T19:17:10.800Z,15.90
2023-05-14T19:19:38.830Z,15.92
2023-05-14T19:22:06.622Z,15.94
2023-05-14T19:24:33.554Z,15.95
2023-05-14T19:27:01.124Z,15.97
2023-05-14T19:29:28.384Z,16.01
2023-05-14T19:31:55.479Z,16.03
2023-05-14T19:34:22.592Z,16.04
2023-05-14T19:36:50.245Z,16.05
2023-05-14T19:39:17.308Z,16.07
2023-05-14T19:41:44.552Z,16.08
2023-05-14T19:44:11.608Z,16.08
2023-05-14T19:46:38.909Z,16.09
2023-05-14T19:49:06.025Z,16.09
2023-05-14T19:51:33.076Z,16.10
2023-05-14T19:54:00.741Z,16.10
2023-05-14T19:56:28.046Z,16.11
2023-05-14T19:58:55.157Z,16.11
2023-05-14T20:01:22.431Z,16.11
2023-05-14T20:03:49.476Z,16.11
2023-05-14T20:06:16.950Z,16.11
2023-05-14T20:08:47.085Z,16.11
2023-05-14T20:11:15.237Z,16.12
2023-05-14T20:13:42.380Z,16.12
2023-05-14T20:16:09.755Z,16.13
2023-05-14T20:18:37.118Z,16.13
2023-05-14T20:21:05.096Z,16.13
2023-05-14T20:23:32.350Z,16.14
2023-05-14T20:26:01.234Z,16.15
2023-05-14T20:28:28.397Z,16.16
2023-05-14T20:30:58.365Z,16.17
2023-05-14T20:33:26.592Z,16.17
2023-05-14T20:35:53.861Z,16.17
2023-05-14T20:38:21.441Z,16.18
2023-05-14T20:40:48.680Z,16.18
2023-05-14T20:43:15.932Z,16.19
2023-05-14T20:45:42.854Z,16.20
2023-05-14T20:48:11.701Z,16.21
2023-05-14T20:50:38.946Z,16.23
2023-05-14T20:53:06.095Z,16.23
2023-05-14T20:55:33.454Z,16.23
2023-05-14T20:58:00.506Z,16.23
2023-05-14T21:00:27.556Z,16.24
2023-05-14T21:02:54.633Z,16.23
2023-05-14T21:05:21.972Z,16.23
2023-05-14T21:07:48.921Z,16.23
2023-05-14T21:10:16.691Z,16.22
2023-05-14T21:12:44.902Z,16.20
2023-05-14T21:15:12.353Z,16.20
2023-05-14T21:17:39.758Z,16.19
2023-05-14T21:20:07.839Z,16.18
2023-05-14T21:22:35.139Z,16.18
2023-05-14T21:25:02.494Z,16.18
2023-05-14T21:27:29.623Z,16.18
2023-05-14T21:29:56.694Z,16.18
2023-05-14T21:32:23.928Z,16.18
2023-05-14T21:34:51.230Z,16.18
2023-05-14T21:37:18.367Z,16.19
2023-05-14T21:39:45.524Z,16.19
2023-05-14T21:42:12.780Z,16.18
2023-05-14T21:44:39.842Z,16.19
2023-05-14T21:47:07.301Z,16.18
2023-05-14T21:49:35.076Z,16.17
2023-05-14T21:52:02.322Z,16.17
2023-05-14T21:54:29.576Z,16.17
2023-05-14T21:56:56.954Z,16.16
2023-05-14T21:59:24.308Z,16.16
2023-05-14T22:02:06.260Z,16.16
2023-05-14T22:04:34.779Z,16.15
2023-05-14T22:07:01.832Z,16.15
2023-05-14T22:09:29.918Z,16.15
2023-05-14T22:11:57.887Z,16.14
2023-05-14T22:14:26.725Z,16.13
2023-05-14T22:16:53.933Z,16.11
2023-05-14T22:19:21.813Z,16.06
2023-05-14T22:21:48.757Z,16.00
2023-05-14T22:24:15.914Z,15.93
2023-05-14T22:26:43.479Z,15.86
2023-05-14T22:29:10.739Z,15.78
2023-05-14T22:31:38.282Z,15.71
2023-05-14T22:34:05.355Z,15.64
2023-05-14T22:36:32.509Z,15.60
2023-05-14T22:38:59.798Z,15.54
2023-05-14T22:41:27.230Z,15.52
2023-05-14T22:43:54.177Z,15.49
2023-05-14T22:46:21.388Z,15.47
2023-05-14T22:48:48.800Z,15.45
2023-05-14T22:51:16.121Z,15.43
2023-05-14T22:53:43.218Z,15.42
2023-05-14T22:56:10.572Z,15.42
2023-05-14T22:58:37.635Z,15.41
2023-05-14T23:01:04.817Z,15.41
2023-05-14T23:03:31.885Z,15.41
2023-05-14T23:05:58.977Z,15.42
2023-05-14T23:08:25.953Z,15.44
2023-05-14T23:10:53.305Z,15.45
2023-05-14T23:13:20.657Z,15.47
2023-05-14T23:15:48.329Z,15.49
2023-05-14T23:18:15.577Z,15.51
2023-05-14T23:20:43.257Z,15.52
2023-05-14T23:23:10.719Z,15.54
2023-05-14T23:25:37.798Z,15.55
2023-05-14T23:28:05.125Z,15.56
2023-05-14T23:30:32.290Z,15.57
2023-05-14T23:32:59.741Z,15.60
2023-05-14T23:35:27.455Z,15.61
2023-05-14T23:37:54.771Z,15.63
2023-05-14T23:40:21.828Z,15.65
2023-05-14T23:42:48.988Z,15.67
2023-05-14T23:45:16.614Z,15.68
2023-05-14T23:47:44.081Z,15.68
2023-05-14T23:50:11.174Z,15.69
2023-05-14T23:52:38.322Z,15.70
2023-05-14T23:55:06.193Z,15.70
2023-05-14T23:57:33.446Z,15.70
